createdAt,value
2023-02-22T00:00:52.925Z,10.41
2023-02-22T00:10:57.144Z,10.37
2023-02-22T00:21:01.909Z,10.34
2023-02-22T00:31:07.199Z,10.31
2023-02-22T00:41:10.150Z,10.34
2023-02-22T00:51:14.340Z,10.37
2023-02-22T01:01:17.755Z,10.38
2023-02-22T01:11:22.234Z,10.31
2023-02-22T01:21:24.841Z,10.20
2023-02-22T01:31:28.871Z,10.19
2023-02-22T01:41:31.586Z,10.19
2023-02-22T01:51:39.145Z,10.20
2023-02-22T02:01:44.519Z,10.14
2023-02-22T02:11:50.837Z,10.15
2023-02-22T02:22:15.786Z,10.16
2023-02-22T02:32:28.986Z,10.12
2023-02-22T02:42:38.050Z,10.18
2023-02-22T02:52:43.220Z,10.10
2023-02-22T03:02:58.827Z,10.06
2023-02-22T03:13:11.642Z,10.01
2023-02-22T03:23:25.140Z,9.93
2023-02-22T03:33:36.238Z,9.94
2023-02-22T03:43:41.102Z,9.94
2023-02-22T03:53:45.582Z,9.94
2023-02-22T04:03:48.313Z,9.89
2023-02-22T04:13:54.678Z,9.92
2023-02-22T04:23:57.265Z,9.88
2023-02-22T04:34:01.248Z,9.89
2023-02-22T04:44:04.085Z,9.81
2023-02-22T04:54:08.152Z,9.72
2023-02-22T05:04:10.750Z,9.78
2023-02-22T05:14:14.705Z,9.79
2023-02-22T05:24:17.903Z,9.76
2023-02-22T05:34:21.915Z,9.78
2023-02-22T05:44:24.531Z,9.75
2023-02-22T05:54:28.701Z,9.77
2023-02-22T06:04:31.497Z,9.85
2023-02-22T06:14:35.869Z,9.75
2023-02-22T06:24:40.178Z,9.79
2023-02-22T06:34:44.131Z,9.78
2023-02-22T06:44:46.728Z,9.80
2023-02-22T06:54:51.125Z,9.89
2023-02-22T07:04:53.764Z,9.90
2023-02-22T07:14:57.735Z,9.97
2023-02-22T07:25:01.092Z,10.05
2023-02-22T07:35:05.133Z,10.14
2023-02-22T07:45:08.392Z,10.20
2023-02-22T07:55:12.484Z,10.33
2023-02-22T08:05:15.686Z,10.49
2023-02-22T08:15:22.347Z,10.65
2023-02-22T08:25:27.004Z,11.23
2023-02-22T08:35:32.641Z,11.13
2023-02-22T08:45:35.315Z,11.47
2023-02-22T08:55:41.725Z,11.54
2023-02-22T09:05:45.108Z,11.29
2023-02-22T09:15:49.132Z,11.10
2023-02-22T09:25:51.888Z,10.96
2023-02-22T09:35:55.880Z,11.23
2023-02-22T09:46:20.252Z,11.90
2023-02-22T09:56:26.686Z,11.79
2023-02-22T10:06:29.636Z,11.76
2023-02-22T10:16:39.557Z,11.83
2023-02-22T10:26:44.070Z,11.55
2023-02-22T10:36:50.899Z,11.57
2023-02-22T10:46:55.338Z,11.82
2023-02-22T10:57:00.105Z,12.06
2023-02-22T11:07:11.118Z,12.05
2023-02-22T11:17:20.228Z,12.36
2023-02-22T11:27:28.270Z,12.44
2023-02-22T11:37:36.368Z,12.88
2023-02-22T11:47:49.138Z,12.66
2023-02-22T11:58:06.946Z,12.97
2023-02-22T12:08:21.674Z,12.71
2023-02-22T12:18:34.557Z,12.86
2023-02-22T12:28:40.147Z,13.09
2023-02-22T12:38:48.302Z,14.14
2023-02-22T12:48:56.685Z,14.68
2023-02-22T12:59:08.306Z,15.34
2023-02-22T13:09:38.514Z,16.22
2023-02-22T13:19:48.170Z,15.28
2023-02-22T13:29:57.761Z,14.39
2023-02-22T13:40:26.795Z,13.82
2023-02-22T13:50:42.966Z,13.43
2023-02-22T14:00:49.240Z,13.30
2023-02-22T14:10:55.011Z,13.33
2023-02-22T14:21:08.920Z,13.12
2023-02-22T14:31:29.414Z,13.33
2023-02-22T14:41:34.575Z,12.96
2023-02-22T14:51:43.186Z,12.78
2023-02-22T15:01:58.694Z,13.07
2023-02-22T15:12:14.058Z,12.91
2023-02-22T15:22:22.759Z,12.89
2023-02-22T15:32:32.097Z,12.78
2023-02-22T15:42:44.357Z,12.65
2023-02-22T15:52:52.998Z,12.59
2023-02-22T16:02:58.881Z,12.52
2023-02-22T16:13:19.085Z,12.46
2023-02-22T16:23:33.061Z,12.35
2023-02-22T16:33:35.887Z,12.25
2023-02-22T16:43:40.401Z,12.16
2023-02-22T16:53:44.447Z,12.05
2023-02-22T17:03:48.465Z,11.93
2023-02-22T17:13:51.967Z,11.76
2023-02-22T17:23:55.897Z,11.72
2023-02-22T17:34:02.785Z,11.56
2023-02-22T17:44:06.898Z,11.49
2023-02-22T17:54:10.533Z,11.37
2023-02-22T18:04:14.577Z,11.38
2023-02-22T18:14:17.174Z,11.31
2023-02-22T18:24:21.179Z,11.27
2023-02-22T18:34:25.019Z,11.26
2023-02-22T18:44:29.071Z,11.25
2023-02-22T18:54:31.661Z,11.24
2023-02-22T19:04:35.778Z,11.20
2023-02-22T19:14:39.530Z,11.18
2023-02-22T19:24:43.689Z,11.08
2023-02-22T19:34:46.924Z,11.08
2023-02-22T19:44:52.541Z,10.98
2023-02-22T19:54:55.232Z,10.87
2023-02-22T20:04:59.227Z,10.73
2023-02-22T20:15:03.077Z,10.67
2023-02-22T20:25:07.484Z,10.62
2023-02-22T20:35:10.154Z,10.67
2023-02-22T20:45:16.112Z,10.66
2023-02-22T20:55:18.985Z,10.59
2023-02-22T21:05:22.969Z,10.56
2023-02-22T21:15:25.888Z,10.54
2023-02-22T21:25:31.495Z,10.41
2023-02-22T21:35:36.823Z,10.40
2023-02-22T21:45:40.935Z,10.22
2023-02-22T21:55:44.115Z,10.41
2023-02-22T22:05:48.613Z,10.34
2023-02-22T22:15:51.370Z,10.40
2023-02-22T22:26:02.108Z,10.34
2023-02-22T22:36:05.872Z,10.24
2023-02-22T22:46:10.182Z,10.25
2023-02-22T22:56:15.778Z,10.12
2023-02-22T23:06:19.743Z,9.96
2023-02-22T23:16:23.060Z,9.94
2023-02-22T23:26:27.495Z,9.76
2023-02-22T23:36:30.124Z,9.83
2023-02-22T23:46:34.203Z,9.65
2023-02-22T23:56:40.030Z,9.44
